createdAt,value
2018-03-02T00:00:20.470Z,-3.71
2018-03-02T00:01:20.443Z,-3.74
2018-03-02T00:02:20.404Z,-3.81
2018-03-02T00:03:20.372Z,-3.85
2018-03-02T00:04:20.343Z,-3.87
2018-03-02T00:05:20.311Z,-3.85
2018-03-02T00:06:20.283Z,-3.80
2018-03-02T00:07:20.244Z,-3.88
2018-03-02T00:08:20.214Z,-3.87
2018-03-02T00:09:20.181Z,-3.78
2018-03-02T00:10:20.148Z,-3.83
2018-03-02T00:11:20.116Z,-3.83
2018-03-02T00:12:20.086Z,-3.87
2018-03-02T00:13:20.059Z,-3.87
2018-03-02T00:14:20.018Z,-3.87
2018-03-02T00:15:19.987Z,-3.98
2018-03-02T00:16:19.986Z,-3.96
2018-03-02T00:17:19.925Z,-3.96
2018-03-02T00:18:19.893Z,-3.91
2018-03-02T00:19:19.862Z,-3.95
2018-03-02T00:20:19.828Z,-4.02
2018-03-02T00:21:19.803Z,-3.94
2018-03-02T00:22:19.761Z,-4.01
2018-03-02T00:23:19.732Z,-3.96
2018-03-02T00:24:19.700Z,-3.95
2018-03-02T00:25:19.671Z,-3.98
2018-03-02T00:26:19.636Z,-4.01
2018-03-02T00:27:19.604Z,-3.91
2018-03-02T00:28:19.570Z,-3.96
2018-03-02T00:29:19.538Z,-3.98
2018-03-02T00:30:19.504Z,-3.95
2018-03-02T00:31:19.473Z,-4.09
2018-03-02T00:32:19.440Z,-4.08
2018-03-02T00:33:19.409Z,-4.02
2018-03-02T00:34:19.376Z,-4.05
2018-03-02T00:35:19.345Z,-4.08
2018-03-02T00:36:19.312Z,-4.08
2018-03-02T00:37:19.283Z,-3.96
2018-03-02T00:38:19.248Z,-4.05
2018-03-02T00:39:19.218Z,-3.99
2018-03-02T00:40:19.185Z,-4.13
2018-03-02T00:41:19.153Z,-4.04
2018-03-02T00:42:19.119Z,-4.12
2018-03-02T00:43:19.089Z,-4.05
2018-03-02T00:44:19.054Z,-4.16
2018-03-02T00:45:19.027Z,-4.16
2018-03-02T00:46:18.997Z,-4.16
2018-03-02T00:47:18.958Z,-4.13
2018-03-02T00:48:18.945Z,-4.13
2018-03-02T00:49:18.893Z,-4.26
2018-03-02T00:50:18.872Z,-4.13
2018-03-02T00:51:18.833Z,-4.22
2018-03-02T00:52:18.824Z,-4.22
2018-03-02T00:53:18.786Z,-4.12
2018-03-02T00:54:18.733Z,-4.22
2018-03-02T00:55:18.700Z,-4.12
2018-03-02T00:56:18.668Z,-4.09
2018-03-02T00:57:18.637Z,-4.16
2018-03-02T00:58:18.604Z,-4.13
2018-03-02T00:59:18.572Z,-4.23
2018-03-02T01:00:18.540Z,-4.24
2018-03-02T01:01:18.506Z,-4.31
2018-03-02T01:02:18.474Z,-4.26
2018-03-02T01:03:18.441Z,-4.24
2018-03-02T01:04:18.409Z,-4.42
2018-03-02T01:05:18.376Z,-4.37
2018-03-02T01:06:18.345Z,-4.51
2018-03-02T01:07:18.312Z,-4.40
2018-03-02T01:08:18.282Z,-4.34
2018-03-02T01:09:18.246Z,-4.40
2018-03-02T01:10:18.217Z,-4.40
2018-03-02T01:11:18.182Z,-4.51
2018-03-02T01:12:18.162Z,-4.38
2018-03-02T01:13:18.118Z,-4.35
2018-03-02T01:14:18.085Z,-4.37
2018-03-02T01:15:18.057Z,-4.38
2018-03-02T01:16:18.024Z,-4.47
2018-03-02T01:17:17.988Z,-4.40
2018-03-02T01:18:17.957Z,-4.51
2018-03-02T01:19:17.926Z,-4.34
2018-03-02T01:20:17.890Z,-4.44
2018-03-02T01:21:17.858Z,-4.52
2018-03-02T01:22:17.829Z,-4.38
2018-03-02T01:23:17.798Z,-4.49
2018-03-02T01:24:17.776Z,-4.44
2018-03-02T01:25:17.730Z,-4.49
2018-03-02T01:26:17.699Z,-4.35
2018-03-02T01:27:17.669Z,-4.35
2018-03-02T01:28:17.633Z,-4.35
2018-03-02T01:29:17.598Z,-4.49
2018-03-02T01:30:17.566Z,-4.42
2018-03-02T01:31:17.536Z,-4.38
2018-03-02T01:32:17.501Z,-4.51
2018-03-02T01:33:17.469Z,-4.37
2018-03-02T01:34:17.454Z,-4.37
2018-03-02T01:35:17.404Z,-4.52
2018-03-02T01:36:17.369Z,-4.44
2018-03-02T01:37:17.338Z,-4.49
2018-03-02T01:38:17.304Z,-4.51
2018-03-02T01:39:17.272Z,-4.49
2018-03-02T01:40:17.240Z,-4.52
2018-03-02T01:41:17.210Z,-4.47
2018-03-02T01:42:17.181Z,-4.44
2018-03-02T01:43:17.144Z,-4.47
2018-03-02T01:44:17.115Z,-4.49
2018-03-02T01:45:17.079Z,-4.51
2018-03-02T01:46:17.047Z,-4.56
2018-03-02T01:47:17.013Z,-4.62
2018-03-02T01:48:16.980Z,-4.61
2018-03-02T01:49:16.951Z,-4.58
2018-03-02T01:50:16.917Z,-4.67
2018-03-02T01:51:16.881Z,-4.62
2018-03-02T01:52:16.851Z,-4.59
2018-03-02T01:53:16.822Z,-4.61
2018-03-02T01:54:16.785Z,-4.62
2018-03-02T01:55:16.753Z,-4.62
2018-03-02T01:56:16.722Z,-4.56
2018-03-02T01:57:16.691Z,-4.59
2018-03-02T01:58:16.654Z,-4.63
2018-03-02T01:59:16.622Z,-4.62
2018-03-02T02:00:16.594Z,-4.59
2018-03-02T02:01:16.557Z,-4.59
2018-03-02T02:02:16.525Z,-4.58
2018-03-02T02:03:16.502Z,-4.65
2018-03-02T02:04:16.464Z,-4.61
2018-03-02T02:05:16.430Z,-4.59
2018-03-02T02:06:16.393Z,-4.65
2018-03-02T02:07:16.369Z,-4.59
2018-03-02T02:08:16.334Z,-4.61
2018-03-02T02:09:16.297Z,-4.59
2018-03-02T02:10:16.270Z,-4.58
2018-03-02T02:11:16.233Z,-4.61
2018-03-02T02:12:16.198Z,-4.55
2018-03-02T02:13:16.170Z,-4.63
2018-03-02T02:14:16.138Z,-4.61
2018-03-02T02:15:16.100Z,-4.61
2018-03-02T02:16:16.070Z,-4.58
2018-03-02T02:17:16.037Z,-4.67
2018-03-02T02:18:16.026Z,-4.65
2018-03-02T02:19:15.970Z,-4.61
2018-03-02T02:20:15.937Z,-4.62
2018-03-02T02:21:15.906Z,-4.63
2018-03-02T02:22:15.879Z,-4.65
2018-03-02T02:23:15.841Z,-4.67
2018-03-02T02:24:15.806Z,-4.71
2018-03-02T02:25:15.775Z,-4.80
2018-03-02T02:26:15.744Z,-4.74
2018-03-02T02:27:15.708Z,-4.71
2018-03-02T02:28:15.677Z,-4.83
2018-03-02T02:29:15.644Z,-4.74
2018-03-02T02:30:15.612Z,-4.90
2018-03-02T02:31:15.579Z,-4.77
2018-03-02T02:32:15.546Z,-4.91
2018-03-02T02:33:15.515Z,-4.92
2018-03-02T02:34:15.480Z,-4.92
2018-03-02T02:35:15.449Z,-4.90
2018-03-02T02:36:15.418Z,-5.01
2018-03-02T02:37:15.385Z,-4.88
2018-03-02T02:38:15.349Z,-4.91
2018-03-02T02:39:15.317Z,-4.95
2018-03-02T02:40:15.288Z,-5.02
2018-03-02T02:41:15.250Z,-5.05
2018-03-02T02:42:15.225Z,-5.06
2018-03-02T02:43:15.186Z,-4.94
2018-03-02T02:44:15.155Z,-4.98
2018-03-02T02:45:15.220Z,-5.01
2018-03-02T02:46:15.089Z,-4.97
2018-03-02T02:47:15.055Z,-5.02
2018-03-02T02:48:15.024Z,-4.94
2018-03-02T02:49:14.990Z,-5.01
2018-03-02T02:50:14.966Z,-4.98
2018-03-02T02:51:14.923Z,-5.02
2018-03-02T02:52:14.894Z,-5.02
2018-03-02T02:53:14.861Z,-4.97
2018-03-02T02:54:14.829Z,-5.05
2018-03-02T02:55:14.803Z,-5.09
2018-03-02T02:56:14.759Z,-5.05
2018-03-02T02:57:14.726Z,-5.01
2018-03-02T02:58:14.695Z,-5.01
2018-03-02T02:59:14.663Z,-5.05
2018-03-02T03:00:14.637Z,-5.06
2018-03-02T03:01:14.595Z,-5.08
2018-03-02T03:02:14.571Z,-5.17
2018-03-02T03:03:14.536Z,-5.16
2018-03-02T03:04:14.497Z,-5.10
2018-03-02T03:05:14.466Z,-5.16
2018-03-02T03:06:14.440Z,-5.06
2018-03-02T03:07:14.400Z,-5.06
2018-03-02T03:08:14.374Z,-5.05
2018-03-02T03:09:14.358Z,-5.08
2018-03-02T03:10:14.300Z,-5.05
2018-03-02T03:11:14.268Z,-5.12
2018-03-02T03:12:14.234Z,-5.09
2018-03-02T03:13:14.202Z,-5.09
2018-03-02T03:14:14.167Z,-5.10
2018-03-02T03:15:14.135Z,-5.10
2018-03-02T03:16:14.108Z,-5.05
2018-03-02T03:17:14.071Z,-5.10
2018-03-02T03:18:14.037Z,-5.13
2018-03-02T03:19:14.005Z,-5.20
2018-03-02T03:20:13.974Z,-5.16
2018-03-02T03:21:13.938Z,-5.13
2018-03-02T03:22:13.906Z,-5.13
2018-03-02T03:23:13.873Z,-5.10
2018-03-02T03:24:13.838Z,-5.16
2018-03-02T03:25:13.808Z,-5.10
2018-03-02T03:26:13.775Z,-5.13
2018-03-02T03:27:13.744Z,-5.16
2018-03-02T03:28:13.709Z,-5.17
2018-03-02T03:29:13.680Z,-5.28
2018-03-02T03:30:13.658Z,-5.20
2018-03-02T03:31:13.614Z,-5.19
2018-03-02T03:32:13.577Z,-5.13
2018-03-02T03:33:13.544Z,-5.17
2018-03-02T03:34:13.510Z,-5.17
2018-03-02T03:35:13.478Z,-5.12
2018-03-02T03:36:13.445Z,-5.25
2018-03-02T03:37:13.413Z,-5.27
2018-03-02T03:38:13.378Z,-5.38
2018-03-02T03:39:13.352Z,-5.30
2018-03-02T03:40:13.313Z,-5.32
2018-03-02T03:41:13.281Z,-5.28
2018-03-02T03:42:13.249Z,-5.31
2018-03-02T03:43:13.215Z,-5.34
2018-03-02T03:44:13.183Z,-5.37
2018-03-02T03:45:13.150Z,-5.35
2018-03-02T03:46:13.123Z,-5.35
2018-03-02T03:47:13.080Z,-5.48
2018-03-02T03:48:13.048Z,-5.38
2018-03-02T03:49:13.023Z,-5.41
2018-03-02T03:50:13.007Z,-5.50
2018-03-02T03:51:12.971Z,-5.39
2018-03-02T03:52:12.920Z,-5.34
2018-03-02T03:53:12.885Z,-5.31
2018-03-02T03:54:12.856Z,-5.37
2018-03-02T03:55:12.819Z,-5.35
2018-03-02T03:56:12.785Z,-5.31
2018-03-02T03:57:12.755Z,-5.30
2018-03-02T03:58:12.719Z,-5.31
2018-03-02T03:59:12.689Z,-5.35
2018-03-02T04:00:12.654Z,-5.45
2018-03-02T04:01:12.622Z,-5.45
2018-03-02T04:02:12.587Z,-5.59
2018-03-02T04:03:12.553Z,-5.49
2018-03-02T04:04:12.525Z,-5.59
2018-03-02T04:05:12.490Z,-5.46
2018-03-02T04:06:12.459Z,-5.43
2018-03-02T04:07:12.420Z,-5.45
2018-03-02T04:08:12.392Z,-5.46
2018-03-02T04:09:12.363Z,-5.46
2018-03-02T04:10:12.342Z,-5.48
2018-03-02T04:11:12.294Z,-5.53
2018-03-02T04:12:12.258Z,-5.43
2018-03-02T04:13:12.226Z,-5.46
2018-03-02T04:14:12.189Z,-5.53
2018-03-02T04:15:12.156Z,-5.48
2018-03-02T04:16:12.186Z,-5.46
2018-03-02T04:17:12.090Z,-5.48
2018-03-02T04:18:12.056Z,-5.43
2018-03-02T04:19:12.050Z,-5.49
2018-03-02T04:20:12.005Z,-5.46
2018-03-02T04:21:11.957Z,-5.39
2018-03-02T04:22:11.929Z,-5.38
2018-03-02T04:23:11.892Z,-5.49
2018-03-02T04:24:11.863Z,-5.52
2018-03-02T04:25:11.829Z,-5.59
2018-03-02T04:26:11.794Z,-5.55
2018-03-02T04:27:11.783Z,-5.46
2018-03-02T04:28:11.733Z,-5.56
2018-03-02T04:29:11.880Z,-5.59
2018-03-02T04:30:11.706Z,-5.56
2018-03-02T04:31:11.668Z,-5.53
2018-03-02T04:32:11.635Z,-5.53
2018-03-02T04:33:11.594Z,-5.55
2018-03-02T04:34:11.594Z,-5.58
2018-03-02T04:35:11.539Z,-5.55
2018-03-02T04:36:11.466Z,-5.58
2018-03-02T04:37:11.472Z,-5.56
2018-03-02T04:38:11.431Z,-5.56
2018-03-02T04:39:11.363Z,-5.60
2018-03-02T04:40:11.337Z,-5.68
2018-03-02T04:41:11.297Z,-5.68
2018-03-02T04:42:11.266Z,-5.66
2018-03-02T04:43:11.236Z,-5.66
2018-03-02T04:44:11.197Z,-5.64
2018-03-02T04:45:11.166Z,-5.66
2018-03-02T04:46:11.129Z,-5.64
2018-03-02T04:47:11.100Z,-5.63
2018-03-02T04:48:11.078Z,-5.68
2018-03-02T04:49:11.043Z,-5.76
2018-03-02T04:50:10.998Z,-5.81
2018-03-02T04:51:10.975Z,-5.68
2018-03-02T04:52:10.945Z,-5.77
2018-03-02T04:53:10.898Z,-5.78
2018-03-02T04:54:10.865Z,-5.70
2018-03-02T04:55:10.841Z,-5.70
2018-03-02T04:56:10.802Z,-5.76
2018-03-02T04:57:10.765Z,-5.76
2018-03-02T04:58:10.735Z,-5.76
2018-03-02T04:59:10.730Z,-5.78
2018-03-02T05:00:10.667Z,-5.76
2018-03-02T05:01:10.654Z,-5.78
2018-03-02T05:02:10.600Z,-5.76
2018-03-02T05:03:10.567Z,-5.81
2018-03-02T05:04:10.534Z,-5.74
2018-03-02T05:05:10.499Z,-5.77
2018-03-02T05:06:10.473Z,-5.76
2018-03-02T05:07:10.435Z,-5.74
2018-03-02T05:08:10.401Z,-5.76
2018-03-02T05:09:10.370Z,-5.78
2018-03-02T05:10:10.346Z,-5.76
2018-03-02T05:11:10.301Z,-5.77
2018-03-02T05:12:10.270Z,-5.74
2018-03-02T05:13:10.236Z,-5.77
2018-03-02T05:14:10.236Z,-5.77
2018-03-02T05:15:10.218Z,-5.92
2018-03-02T05:16:10.213Z,-5.81
2018-03-02T05:17:10.115Z,-5.92
2018-03-02T05:18:10.095Z,-5.81
2018-03-02T05:19:10.089Z,-5.81
2018-03-02T05:20:10.013Z,-5.85
2018-03-02T05:21:09.980Z,-5.89
2018-03-02T05:22:09.980Z,-5.85
2018-03-02T05:23:09.916Z,-5.85
2018-03-02T05:24:09.903Z,-5.82
2018-03-02T05:26:03.298Z,-5.97
2018-03-02T05:27:03.235Z,-6.02
2018-03-02T05:28:56.555Z,-5.99
2018-03-02T05:29:56.421Z,-5.97
2018-03-02T05:31:49.788Z,-5.99
2018-03-02T05:32:49.750Z,-5.92
2018-03-02T05:34:43.131Z,-5.94
2018-03-02T05:35:43.002Z,-6.00
2018-03-02T05:37:36.300Z,-5.95
2018-03-02T05:38:36.264Z,-5.97
2018-03-02T05:40:30.056Z,-5.95
2018-03-02T05:41:29.557Z,-5.99
2018-03-02T05:42:29.511Z,-5.97
2018-03-02T05:43:29.477Z,-5.87
2018-03-02T05:44:29.442Z,-6.02
2018-03-02T05:45:29.411Z,-5.89
2018-03-02T05:46:29.415Z,-5.95
2018-03-02T05:47:29.345Z,-6.02
2018-03-02T05:48:29.312Z,-5.99
2018-03-02T05:49:29.278Z,-6.03
2018-03-02T05:50:29.244Z,-5.95
2018-03-02T05:51:29.210Z,-5.92
2018-03-02T05:52:29.177Z,-5.97
2018-03-02T05:53:29.145Z,-6.02
2018-03-02T05:54:29.110Z,-6.03
2018-03-02T05:55:29.076Z,-6.03
2018-03-02T05:56:29.045Z,-6.03
2018-03-02T05:57:29.009Z,-5.95
2018-03-02T05:58:28.977Z,-6.02
2018-03-02T05:59:28.942Z,-5.99
2018-03-02T06:00:28.920Z,-5.99
2018-03-02T06:01:28.875Z,-6.03
2018-03-02T06:02:28.846Z,-5.99
2018-03-02T06:03:28.809Z,-5.97
2018-03-02T06:04:28.781Z,-6.00
2018-03-02T06:05:28.782Z,-6.09
2018-03-02T06:06:28.709Z,-6.07
2018-03-02T06:07:28.681Z,-6.13
2018-03-02T06:08:28.651Z,-6.21
2018-03-02T06:09:28.612Z,-6.27
2018-03-02T06:10:28.579Z,-6.09
2018-03-02T06:11:28.540Z,-6.03
2018-03-02T06:12:28.507Z,-6.24
2018-03-02T06:13:28.474Z,-6.05
2018-03-02T06:14:28.441Z,-6.15
2018-03-02T06:15:28.438Z,-6.20
2018-03-02T06:16:28.384Z,-6.20
2018-03-02T06:17:28.359Z,-6.20
2018-03-02T06:18:28.315Z,-6.16
2018-03-02T06:19:28.275Z,-6.16
2018-03-02T06:20:28.247Z,-6.24
2018-03-02T06:21:28.208Z,-6.23
2018-03-02T06:22:28.190Z,-6.27
2018-03-02T06:23:28.142Z,-6.31
2018-03-02T06:24:28.138Z,-6.24
2018-03-02T06:25:28.077Z,-6.24
2018-03-02T06:26:28.040Z,-6.21
2018-03-02T06:27:28.018Z,-6.21
2018-03-02T06:28:27.970Z,-6.21
2018-03-02T06:29:27.939Z,-6.24
2018-03-02T06:30:27.906Z,-6.27
2018-03-02T06:31:27.901Z,-6.26
2018-03-02T06:32:27.850Z,-6.21
2018-03-02T06:33:27.810Z,-6.20
2018-03-02T06:34:27.773Z,-6.23
2018-03-02T06:35:27.751Z,-6.13
2018-03-02T06:36:27.711Z,-6.24
2018-03-02T06:37:27.678Z,-6.26
2018-03-02T06:38:27.638Z,-6.26
2018-03-02T06:39:27.605Z,-6.30
2018-03-02T06:40:27.573Z,-6.21
2018-03-02T06:41:27.538Z,-6.20
2018-03-02T06:42:27.505Z,-6.21
2018-03-02T06:43:27.479Z,-6.23
2018-03-02T06:44:27.437Z,-6.24
2018-03-02T06:45:27.410Z,-6.21
2018-03-02T06:46:27.373Z,-6.16
2018-03-02T06:47:27.337Z,-6.15
2018-03-02T06:48:27.304Z,-6.18
2018-03-02T06:49:27.267Z,-6.15
2018-03-02T06:50:27.238Z,-6.21
2018-03-02T06:51:27.202Z,-6.28
2018-03-02T06:52:27.172Z,-6.26
2018-03-02T06:53:27.134Z,-6.23
2018-03-02T06:54:27.101Z,-6.21
2018-03-02T06:55:27.068Z,-6.20
2018-03-02T06:56:27.038Z,-6.15
2018-03-02T06:57:26.999Z,-6.20
2018-03-02T06:58:26.968Z,-6.27
2018-03-02T06:59:26.931Z,-6.20
2018-03-02T07:00:26.899Z,-6.18
2018-03-02T07:01:26.865Z,-6.23
2018-03-02T07:02:26.833Z,-6.26
2018-03-02T07:03:26.799Z,-6.20
2018-03-02T07:04:26.766Z,-6.15
2018-03-02T07:05:26.732Z,-6.20
2018-03-02T07:06:26.700Z,-6.21
2018-03-02T07:07:26.665Z,-6.20
2018-03-02T07:08:26.632Z,-6.16
2018-03-02T07:09:26.598Z,-6.13
2018-03-02T07:10:26.564Z,-6.15
2018-03-02T07:11:26.533Z,-6.21
2018-03-02T07:12:26.506Z,-6.09
2018-03-02T07:13:26.510Z,-6.10
2018-03-02T07:14:26.429Z,-6.07
2018-03-02T07:15:26.433Z,-6.00
2018-03-02T07:16:26.416Z,-6.05
2018-03-02T07:17:26.381Z,-6.06
2018-03-02T07:18:26.328Z,-6.02
2018-03-02T07:19:26.263Z,-5.99
2018-03-02T07:20:26.230Z,-5.91
2018-03-02T07:21:26.245Z,-5.97
2018-03-02T07:22:26.162Z,-6.02
2018-03-02T07:23:26.135Z,-5.94
2018-03-02T07:24:26.099Z,-5.99
2018-03-02T07:25:26.063Z,-5.92
2018-03-02T07:26:26.029Z,-5.87
2018-03-02T07:27:25.994Z,-5.89
2018-03-02T07:28:25.965Z,-5.88
2018-03-02T07:29:25.944Z,-6.00
2018-03-02T07:30:25.896Z,-5.99
2018-03-02T07:31:25.860Z,-5.99
2018-03-02T07:32:25.833Z,-5.87
2018-03-02T07:33:25.795Z,-5.91
2018-03-02T07:34:25.765Z,-5.87
2018-03-02T07:35:25.728Z,-5.85
2018-03-02T07:36:25.698Z,-5.92
2018-03-02T07:37:25.663Z,-5.87
2018-03-02T07:38:25.677Z,-5.88
2018-03-02T07:39:25.598Z,-5.91
2018-03-02T07:40:25.561Z,-5.82
2018-03-02T07:41:25.527Z,-5.77
2018-03-02T07:42:25.495Z,-5.78
2018-03-02T07:43:25.462Z,-5.76
2018-03-02T07:44:25.446Z,-5.78
2018-03-02T07:45:25.399Z,-5.81
2018-03-02T07:46:25.366Z,-5.74
2018-03-02T07:47:25.330Z,-5.78
2018-03-02T07:48:25.299Z,-5.81
2018-03-02T07:49:25.278Z,-5.77
2018-03-02T07:50:25.233Z,-5.78
2018-03-02T07:51:25.197Z,-5.73
2018-03-02T07:52:25.163Z,-5.81
2018-03-02T07:53:25.139Z,-5.71
2018-03-02T07:54:25.099Z,-5.70
2018-03-02T07:55:25.066Z,-5.66
2018-03-02T07:56:25.029Z,-5.63
2018-03-02T07:57:24.999Z,-5.56
2018-03-02T07:58:24.971Z,-5.59
2018-03-02T07:59:24.930Z,-5.60
2018-03-02T08:00:24.895Z,-5.53
2018-03-02T08:01:24.862Z,-5.55
2018-03-02T08:02:24.832Z,-5.55
2018-03-02T08:03:24.799Z,-5.52
2018-03-02T08:04:24.805Z,-5.43
2018-03-02T08:05:24.731Z,-5.43
2018-03-02T08:06:24.697Z,-5.41
2018-03-02T08:07:24.664Z,-5.45
2018-03-02T08:08:24.634Z,-5.46
2018-03-02T08:09:24.599Z,-5.31
2018-03-02T08:10:24.566Z,-5.31
2018-03-02T08:11:24.532Z,-5.28
2018-03-02T08:12:24.500Z,-5.23
2018-03-02T08:13:24.466Z,-5.20
2018-03-02T08:14:24.435Z,-5.13
2018-03-02T08:15:24.401Z,-5.12
2018-03-02T08:16:24.367Z,-5.21
2018-03-02T08:17:24.339Z,-5.09
2018-03-02T08:18:24.302Z,-5.02
2018-03-02T08:19:24.270Z,-5.16
2018-03-02T08:20:24.257Z,-5.06
2018-03-02T08:21:24.205Z,-5.09
2018-03-02T08:22:24.173Z,-5.08
2018-03-02T08:23:24.137Z,-5.06
2018-03-02T08:24:24.105Z,-5.02
2018-03-02T08:25:24.073Z,-4.98
2018-03-02T08:26:24.039Z,-4.97
2018-03-02T08:27:24.006Z,-4.94
2018-03-02T08:28:23.974Z,-4.95
2018-03-02T08:29:23.944Z,-4.81
2018-03-02T08:30:23.909Z,-4.80
2018-03-02T08:31:23.902Z,-4.77
2018-03-02T08:32:23.844Z,-4.80
2018-03-02T08:33:23.817Z,-4.76
2018-03-02T08:34:23.776Z,-4.70
2018-03-02T08:35:23.745Z,-4.61
2018-03-02T08:36:23.749Z,-4.65
2018-03-02T08:37:23.679Z,-4.56
2018-03-02T08:38:23.668Z,-4.52
2018-03-02T08:39:23.612Z,-4.52
2018-03-02T08:40:23.583Z,-4.52
2018-03-02T08:41:23.550Z,-4.38
2018-03-02T08:42:23.530Z,-4.42
2018-03-02T08:43:23.484Z,-4.45
2018-03-02T08:44:23.455Z,-4.52
2018-03-02T08:45:23.438Z,-4.44
2018-03-02T08:46:23.394Z,-4.45
2018-03-02T08:47:23.353Z,-4.40
2018-03-02T08:48:23.323Z,-4.30
2018-03-02T08:49:23.288Z,-4.33
2018-03-02T08:50:23.261Z,-4.31
2018-03-02T08:51:23.226Z,-4.34
2018-03-02T08:52:23.191Z,-4.31
2018-03-02T08:53:23.162Z,-4.23
2018-03-02T08:54:23.142Z,-4.19
2018-03-02T08:55:23.096Z,-4.19
2018-03-02T08:56:23.062Z,-4.26
2018-03-02T08:57:23.030Z,-4.20
2018-03-02T08:58:23.023Z,-4.16
2018-03-02T08:59:22.968Z,-4.19
2018-03-02T09:00:22.933Z,-4.16
2018-03-02T09:01:22.902Z,-4.13
2018-03-02T09:02:22.868Z,-4.05
2018-03-02T09:03:22.837Z,-4.06
2018-03-02T09:04:22.803Z,-3.96
2018-03-02T09:05:22.770Z,-3.96
2018-03-02T09:06:22.740Z,-3.98
2018-03-02T09:07:22.706Z,-3.91
2018-03-02T09:08:22.674Z,-3.99
2018-03-02T09:09:22.641Z,-3.94
2018-03-02T09:10:22.611Z,-3.80
2018-03-02T09:11:22.578Z,-3.81
2018-03-02T09:12:22.548Z,-3.80
2018-03-02T09:13:22.514Z,-3.75
2018-03-02T09:14:22.482Z,-3.69
2018-03-02T09:15:22.453Z,-3.61
2018-03-02T09:16:22.418Z,-3.62
2018-03-02T09:17:22.385Z,-3.65
2018-03-02T09:18:22.359Z,-3.64
2018-03-02T09:19:22.322Z,-3.61
2018-03-02T09:20:22.291Z,-3.51
2018-03-02T09:21:22.259Z,-3.56
2018-03-02T09:22:22.233Z,-3.47
2018-03-02T09:23:22.199Z,-3.47
2018-03-02T09:24:22.163Z,-3.46
2018-03-02T09:25:22.132Z,-3.33
2018-03-02T09:26:22.102Z,-3.30
2018-03-02T09:27:22.070Z,-3.30
2018-03-02T09:28:22.035Z,-3.36
2018-03-02T09:29:22.054Z,-3.36
2018-03-02T09:30:21.973Z,-3.32
2018-03-02T09:31:21.992Z,-3.30
2018-03-02T09:32:21.910Z,-3.25
2018-03-02T09:33:21.951Z,-3.27
2018-03-02T09:34:21.868Z,-3.12
2018-03-02T09:35:21.817Z,-3.23
2018-03-02T09:36:21.783Z,-3.22
2018-03-02T09:37:21.759Z,-3.12
2018-03-02T09:38:21.719Z,-3.12
2018-03-02T09:39:21.691Z,-3.02
2018-03-02T09:40:21.657Z,-2.99
2018-03-02T09:41:21.628Z,-2.96
2018-03-02T09:42:21.596Z,-2.90
2018-03-02T09:43:21.563Z,-2.96
2018-03-02T09:44:21.540Z,-2.91
2018-03-02T09:45:21.503Z,-2.89
2018-03-02T09:46:21.468Z,-2.84
2018-03-02T09:47:21.439Z,-2.78
2018-03-02T09:48:21.406Z,-2.84
2018-03-02T09:49:21.377Z,-2.70
2018-03-02T09:50:21.343Z,-2.68
2018-03-02T09:51:21.312Z,-2.61
2018-03-02T09:52:21.282Z,-2.62
2018-03-02T09:53:21.249Z,-2.55
2018-03-02T09:54:21.222Z,-2.55
2018-03-02T09:55:21.186Z,-2.50
2018-03-02T09:56:21.156Z,-2.47
2018-03-02T09:57:21.137Z,-2.51
2018-03-02T09:58:21.095Z,-2.39
2018-03-02T09:59:21.118Z,-2.29
2018-03-02T10:00:21.031Z,-2.37
2018-03-02T10:01:21.001Z,-2.32
2018-03-02T10:02:20.983Z,-2.20
2018-03-02T10:03:20.938Z,-2.15
2018-03-02T10:04:20.907Z,-2.18
2018-03-02T10:05:20.876Z,-2.08
2018-03-02T10:06:20.847Z,-2.15
2018-03-02T10:07:20.814Z,-2.00
2018-03-02T10:08:20.784Z,-1.97
2018-03-02T10:09:20.754Z,-2.00
2018-03-02T10:10:20.725Z,-1.86
2018-03-02T10:11:20.695Z,-1.84
2018-03-02T10:12:20.662Z,-1.74
2018-03-02T10:13:20.632Z,-1.74
2018-03-02T10:14:20.602Z,-1.63
2018-03-02T10:15:20.570Z,-1.69
2018-03-02T10:16:20.538Z,-1.61
2018-03-02T10:17:20.513Z,-1.56
2018-03-02T10:18:20.487Z,-1.54
2018-03-02T10:19:20.456Z,-1.50
2018-03-02T10:20:20.417Z,-1.46
2018-03-02T10:21:20.388Z,-1.39
2018-03-02T10:22:20.357Z,-1.40
2018-03-02T10:23:20.327Z,-1.38
2018-03-02T10:24:20.297Z,-1.30
2018-03-02T10:25:20.265Z,-1.29
2018-03-02T10:26:20.235Z,-1.17
2018-03-02T10:27:20.208Z,-1.14
2018-03-02T10:28:20.177Z,-1.12
2018-03-02T10:29:20.146Z,-1.00
2018-03-02T10:30:20.141Z,-1.09
2018-03-02T10:31:20.084Z,-1.04
2018-03-02T10:32:20.055Z,-1.04
2018-03-02T10:33:20.025Z,-0.97
2018-03-02T10:34:19.995Z,-0.87
2018-03-02T10:35:19.966Z,-0.89
2018-03-02T10:36:19.940Z,-0.87
2018-03-02T10:37:19.912Z,-0.78
2018-03-02T10:38:19.880Z,-0.70
2018-03-02T10:39:19.847Z,-0.59
2018-03-02T10:40:19.839Z,-0.54
2018-03-02T10:41:19.794Z,-0.54
2018-03-02T10:42:19.758Z,-0.53
2018-03-02T10:43:19.730Z,-0.46
2018-03-02T10:44:19.701Z,-0.39
2018-03-02T10:45:19.672Z,-0.30
2018-03-02T10:46:19.645Z,-0.31
2018-03-02T10:47:19.615Z,-0.23
2018-03-02T10:48:19.585Z,-0.17
2018-03-02T10:49:19.557Z,-0.09
2018-03-02T10:50:19.538Z,0.06
2018-03-02T10:51:19.509Z,0.12
2018-03-02T10:52:19.470Z,0.23
2018-03-02T10:53:19.476Z,0.24
2018-03-02T10:54:19.413Z,0.33
2018-03-02T10:55:19.385Z,0.33
2018-03-02T10:56:19.359Z,0.31
2018-03-02T10:57:19.327Z,0.45
2018-03-02T10:58:19.299Z,0.48
2018-03-02T10:59:19.275Z,0.55
2018-03-02T11:00:19.245Z,0.45
2018-03-02T11:01:19.224Z,0.59
2018-03-02T11:02:19.190Z,0.74
2018-03-02T11:03:19.163Z,1.07
2018-03-02T11:04:19.135Z,1.20
2018-03-02T11:05:19.121Z,1.16
2018-03-02T11:06:19.083Z,1.45
2018-03-02T11:07:19.057Z,1.66
2018-03-02T11:08:19.040Z,1.71
2018-03-02T11:09:19.007Z,2.00
2018-03-02T11:10:18.980Z,2.21
2018-03-02T11:11:18.954Z,2.22
2018-03-02T11:12:18.932Z,2.28
2018-03-02T11:13:18.903Z,2.40
2018-03-02T11:14:18.887Z,2.36
2018-03-02T11:15:18.856Z,2.52
2018-03-02T11:16:18.828Z,2.65
2018-03-02T11:17:18.823Z,2.79
2018-03-02T11:18:18.784Z,2.76
2018-03-02T11:19:18.759Z,2.87
2018-03-02T11:20:18.744Z,3.15
2018-03-02T11:21:18.708Z,3.36
2018-03-02T11:22:18.686Z,3.37
2018-03-02T11:23:18.662Z,3.37
2018-03-02T11:24:18.638Z,3.56
2018-03-02T11:25:18.622Z,3.66
2018-03-02T11:26:18.592Z,3.70
2018-03-02T11:27:18.569Z,3.77
2018-03-02T11:28:18.545Z,3.77
2018-03-02T11:29:18.526Z,3.89
2018-03-02T11:30:18.503Z,4.02
2018-03-02T11:31:18.493Z,3.99
2018-03-02T11:32:18.468Z,3.96
2018-03-02T11:33:18.436Z,3.78
2018-03-02T11:34:18.424Z,3.59
2018-03-02T11:35:18.387Z,3.63
2018-03-02T11:36:18.368Z,3.78
2018-03-02T11:37:18.348Z,4.14
2018-03-02T11:38:18.321Z,4.13
2018-03-02T11:39:18.304Z,4.28
2018-03-02T11:40:18.281Z,4.39
2018-03-02T11:41:18.255Z,4.58
2018-03-02T11:42:18.244Z,4.57
2018-03-02T11:43:18.214Z,4.58
2018-03-02T11:44:18.194Z,4.57
2018-03-02T11:45:18.174Z,4.74
2018-03-02T11:46:18.156Z,4.70
2018-03-02T11:47:18.128Z,4.83
2018-03-02T11:48:18.118Z,4.92
2018-03-02T11:49:18.113Z,4.92
2018-03-02T11:50:18.087Z,5.00
2018-03-02T11:51:18.052Z,5.02
2018-03-02T11:52:18.024Z,5.07
2018-03-02T11:53:18.001Z,5.18
2018-03-02T11:54:17.984Z,5.15
2018-03-02T11:55:17.968Z,5.29
2018-03-02T11:56:17.939Z,5.41
2018-03-02T11:57:17.917Z,5.36
2018-03-02T11:58:17.897Z,5.31
2018-03-02T11:59:17.876Z,5.37
2018-03-02T12:00:17.854Z,5.34
2018-03-02T12:01:17.834Z,5.41
2018-03-02T12:02:17.816Z,5.43
2018-03-02T12:03:17.792Z,5.58
2018-03-02T12:04:17.770Z,5.76
2018-03-02T12:05:17.752Z,5.76
2018-03-02T12:06:17.729Z,6.01
2018-03-02T12:07:17.709Z,5.99
2018-03-02T12:08:17.689Z,6.07
2018-03-02T12:09:17.669Z,6.16
2018-03-02T12:10:17.648Z,6.20
2018-03-02T12:11:17.626Z,6.20
2018-03-02T12:12:17.610Z,6.43
2018-03-02T12:13:17.587Z,6.67
2018-03-02T12:14:17.567Z,6.72
2018-03-02T12:15:17.547Z,6.87
2018-03-02T12:16:17.525Z,7.04
2018-03-02T12:17:17.508Z,6.96
2018-03-02T12:18:17.487Z,6.83
2018-03-02T12:19:17.466Z,6.67
2018-03-02T12:20:17.447Z,6.59
2018-03-02T12:21:17.429Z,6.46
2018-03-02T12:22:17.410Z,6.31
2018-03-02T12:23:17.387Z,6.19
2018-03-02T12:24:17.372Z,6.02
2018-03-02T12:25:17.352Z,5.84
2018-03-02T12:26:17.328Z,5.77
2018-03-02T12:27:17.309Z,5.59
2018-03-02T12:28:17.288Z,5.80
2018-03-02T12:29:17.274Z,5.90
2018-03-02T12:30:17.254Z,5.91
2018-03-02T12:31:17.228Z,6.19
2018-03-02T12:32:17.208Z,6.20
2018-03-02T12:33:17.190Z,6.20
2018-03-02T12:34:17.167Z,6.06
2018-03-02T12:35:17.146Z,5.99
2018-03-02T12:36:17.128Z,5.83
2018-03-02T12:37:17.108Z,5.73
2018-03-02T12:38:17.084Z,5.56
2018-03-02T12:39:17.064Z,5.49
2018-03-02T12:40:17.065Z,5.44
2018-03-02T12:41:17.545Z,5.38
2018-03-02T12:42:17.001Z,5.15
2018-03-02T12:43:16.989Z,5.26
2018-03-02T12:44:17.016Z,5.23
2018-03-02T12:45:16.989Z,5.37
2018-03-02T12:46:16.914Z,5.40
2018-03-02T12:47:16.894Z,5.52
2018-03-02T12:48:16.873Z,5.52
2018-03-02T12:49:16.861Z,5.72
2018-03-02T12:50:16.827Z,5.81
2018-03-02T12:51:16.811Z,5.80
2018-03-02T12:52:16.784Z,5.90
2018-03-02T12:53:16.764Z,5.81
2018-03-02T12:54:16.742Z,5.58
2018-03-02T12:55:16.771Z,5.37
2018-03-02T12:56:16.722Z,5.10
2018-03-02T12:57:16.699Z,4.84
2018-03-02T12:58:16.675Z,4.83
2018-03-02T12:59:16.633Z,4.90
2018-03-02T13:00:16.623Z,4.83
2018-03-02T13:01:16.594Z,4.79